CheckWX is a tool to help pilots better visualize weather data.  It is not intended as a substitute for an official pre-flight weather briefing.

21:53:02 UTC

KCVG METAR
Cincinnati / Northern Kentucky International Airport
Covington, Kentucky, USA
Current

1 hour ago

KCVG 252052Z 13009KT 10SM FEW060TCU FEW090 SCT200 OVC250 26/18 A3002 RMK AO2 RAB10E19 SLP158 TCU SW-W P0000 60000 T02560183 58010
Observed
May-25 @ 20:52 UTC
Wind
  • 130° at 9 KTS
Visibility
Flight Rules
VFR
Cloud Levels
  • Few at 6,000' AGL
  • Few at 9,000' AGL
  • Scattered at 20,000' AGL
  • Overcast at 25,000' AGL
Temperature
26°C / 79°F
Dewpoint
18°C / 64°F
Humidity
61%
Altimeter
30.02" Hg
Pressure
1016.62 hPa
Current Rain
0.01"
Previous

2 hours ago

KCVG 251952Z 11013KT 10SM SCT060TCU BKN080 BKN140 OVC230 26/18 A3004 RMK AO2 SLP163 GRDL WSHFT 1918 TCU OHD-N DSNT SE T02560183
Observed
May-25 @ 19:52 UTC
Wind
  • 110° at 13 KTS
Visibility
Flight Rules
VFR
Cloud Levels
  • Scattered at 6,000' AGL
  • Broken at 8,000' AGL
  • Broken at 14,000' AGL
  • Overcast at 23,000' AGL
Temperature
26°C / 79°F
Dewpoint
18°C / 64°F
Humidity
61%
Altimeter
30.04" Hg
Pressure
1017.32 hPa
Previous

3 hours ago

KCVG 251852Z 22005KT 10SM SCT050 SCT070 BKN130 BKN250 29/17 A3004 RMK AO2 LTG DSNT NE-SE SLP161 MDT CU OHD-N-NE CB DSNT NE E-SE T02940172
Observed
May-25 @ 18:52 UTC
Wind
  • 220° at 5 KTS
Visibility
Flight Rules
VFR
Cloud Levels
  • Scattered at 5,000' AGL
  • Scattered at 7,000' AGL
  • Broken at 13,000' AGL
  • Broken at 25,000' AGL
Temperature
29°C / 84°F
Dewpoint
17°C / 63°F
Humidity
48%
Altimeter
30.04" Hg
Pressure
1017.32 hPa